Terminal Aerodrome Forecast
Issued by NWS

Home | Current Version | Previous Version | Graphics & Text | Print | Product List | Glossary On
Versions: 1 2 3 4 5 6 7 8 9 10 11 12 13 14 15 16 17 18 19 20 21 22 23 24 25
357
FTUS43 KABR 230205 AAA
TAFPIR
TAF AMD
KPIR 230205Z 2302/2324 34013KT P6SM VCSH SCT022 BKN120
     FM230500 35011G21KT P6SM VCSH BKN025
     FM230800 35008KT P6SM VCSH BKN025
     FM230900 35007KT P6SM BKN020
     FM231200 35008KT P6SM OVC015
     FM231700 01008KT P6SM -SHRA OVC010=

USA.gov is the U.S. government's official web portal to all federal, state and local government web resources and services.